メインページ
METAR-TAF:

METAR-TAF

空港 :

ポートオブスペイン, Trinidad, トリニダード・トバゴ

緯度: 10-37N, 経度: 061-21W, 海抜: 12m

現時点の気象観測

当レポートは21分前の13:00(UTC)に作成
無風
気温 28°C
湿度 84%
気圧 1014 hPa
視程10km以上
高度1400ftの千切れ雲あり

METAR: TTPP 251300Z 00000KT 9999 BKN014 28/25 Q1014 NOSIG RMK SHWRS-N E SE W NW

時間: 09:21 (13:21 UTC)

予報

当レポートは3時間21分前の10:00(UTC)に作成
予報は25日の 12時(UTC)から 26日の 12時(UTC)まで有効
南東の風 15kt
視程10km以上
高度1800ftの雲は散在している
確率 30% :
25日の 15時(UTC)から 25日の 21時(UTC)まで一時的に
視程: 5000m
高度1000ftの雲はほとんどない, 積乱雲.
高度1500ftの千切れ雲あり
にわか雨
25日の 23時(UTC)から 26日の 01時(UTC)まで徐々に
の風 kt
高度1600ftの雲はほとんどない

TAF: TTPP 251000Z 2512/2612 13015KT 9999 SCT018 PROB30 TEMPO 2515/2521 5000 SHRA FEW010CB BKN015 BECMG 2523/2601 00000KT FEW016

4,000以上の空港の気象観測と天気予報(METAR報とTAF報)

利用可能な観測所は地図上に黄色い丸と赤い丸で示す。

丸の上にカーソルを重ねると観測所名を参照できる。

次にクリックすると気象観測と天気予報を参照できる。

マップの切り替え:黒色「×」印の緑ボタンをクリックして拡大、「-」印の緑ボタンをクリックして縮小、緑色の三角印をクリックして隣りの地図に切り替え


METAR-TAF: